createdAt,value
2023-03-28T00:01:33.487Z,40.71
2023-03-28T00:04:38.242Z,40.27
2023-03-28T00:07:42.861Z,41.10
2023-03-28T00:10:47.605Z,41.51
2023-03-28T00:13:58.549Z,41.00
2023-03-28T00:17:02.855Z,41.20
2023-03-28T00:20:08.997Z,41.30
2023-03-28T00:23:14.066Z,41.02
2023-03-28T00:26:18.131Z,40.43
2023-03-28T00:29:23.956Z,40.32
2023-03-28T00:32:28.819Z,39.86
2023-03-28T00:35:33.672Z,40.15
2023-03-28T00:38:39.612Z,39.64
2023-03-28T00:41:45.741Z,39.70
2023-03-28T00:44:58.350Z,39.26
2023-03-28T00:48:15.153Z,38.74
2023-03-28T00:51:24.750Z,38.19
2023-03-28T00:54:35.226Z,36.43
2023-03-28T00:57:41.892Z,36.50
2023-03-28T01:00:49.803Z,35.35
2023-03-28T01:04:03.128Z,34.64
2023-03-28T01:07:08.166Z,35.68
2023-03-28T01:10:15.650Z,33.56
2023-03-28T01:13:25.017Z,33.48
2023-03-28T01:16:31.705Z,34.02
2023-03-28T01:19:51.286Z,32.33
2023-03-28T01:23:24.146Z,31.98
2023-03-28T01:26:50.116Z,30.98
2023-03-28T01:30:37.890Z,30.54
2023-03-28T01:34:20.138Z,30.55
2023-03-28T01:37:42.931Z,29.03
2023-03-28T01:40:52.444Z,28.71
2023-03-28T01:48:21.631Z,30.06
2023-03-28T01:51:43.010Z,29.01
2023-03-28T01:55:24.058Z,28.92
2023-03-28T01:58:36.711Z,27.88
2023-03-28T02:02:12.093Z,27.89
2023-03-28T02:05:20.225Z,27.83
2023-03-28T02:08:30.436Z,27.08
2023-03-28T02:12:03.063Z,28.12
2023-03-28T02:15:49.282Z,28.24
2023-03-28T02:19:14.176Z,28.73
2023-03-28T02:23:14.802Z,28.86
2023-03-28T02:26:39.040Z,28.84
2023-03-28T02:30:05.589Z,29.06
2023-03-28T02:33:38.707Z,26.26
2023-03-28T02:36:58.292Z,28.67
2023-03-28T02:40:43.301Z,28.87
2023-03-28T02:44:04.188Z,29.09
2023-03-28T02:47:35.569Z,27.76
2023-03-28T02:50:58.251Z,28.03
2023-03-28T02:54:21.354Z,26.62
2023-03-28T02:57:52.916Z,26.30
2023-03-28T03:00:57.677Z,26.81
2023-03-28T03:04:02.122Z,27.11
2023-03-28T03:07:09.781Z,27.73
2023-03-28T03:10:15.337Z,27.26
2023-03-28T03:13:22.840Z,26.60
2023-03-28T03:16:29.994Z,26.70
2023-03-28T03:19:35.874Z,26.94
2023-03-28T03:22:42.353Z,25.74
2023-03-28T03:25:51.447Z,25.47
2023-03-28T03:29:16.049Z,25.13
2023-03-28T03:32:22.344Z,25.49
2023-03-28T03:35:42.776Z,25.01
2023-03-28T03:38:48.401Z,24.18
2023-03-28T03:41:58.284Z,25.33
2023-03-28T03:45:02.652Z,25.12
2023-03-28T03:48:08.268Z,24.91
2023-03-28T03:51:12.696Z,24.50
2023-03-28T03:54:17.039Z,24.20
2023-03-28T03:57:21.661Z,24.19
2023-03-28T04:00:32.815Z,23.25
2023-03-28T04:03:37.472Z,23.98
2023-03-28T04:06:43.972Z,24.48
2023-03-28T04:09:49.260Z,24.54
2023-03-28T04:12:53.582Z,24.24
2023-03-28T04:15:58.418Z,24.43
2023-03-28T04:19:31.779Z,24.16
2023-03-28T04:22:36.748Z,24.08
2023-03-28T04:26:01.826Z,23.81
2023-03-28T04:29:32.462Z,24.05
2023-03-28T04:32:55.501Z,24.07
2023-03-28T04:36:03.446Z,24.14
2023-03-28T04:39:08.800Z,24.26
2023-03-28T04:42:36.545Z,22.89
2023-03-28T04:46:04.569Z,24.09
2023-03-28T04:49:08.890Z,24.25
2023-03-28T04:52:16.654Z,24.62
2023-03-28T04:55:25.080Z,24.44
2023-03-28T04:58:29.968Z,24.36
2023-03-28T05:01:35.615Z,24.51
2023-03-28T05:05:08.636Z,24.64
2023-03-28T05:08:14.423Z,24.78
2023-03-28T05:11:19.642Z,24.48
2023-03-28T05:14:24.065Z,23.94
2023-03-28T05:17:41.779Z,24.10
2023-03-28T05:21:07.009Z,24.17
2023-03-28T05:24:11.753Z,23.78
2023-03-28T05:27:16.515Z,23.55
2023-03-28T05:30:21.815Z,23.84
2023-03-28T05:33:31.080Z,23.81
2023-03-28T05:36:36.380Z,23.66
2023-03-28T05:39:40.780Z,23.41
2023-03-28T05:42:45.569Z,23.06
2023-03-28T05:45:55.765Z,23.55
2023-03-28T05:49:06.331Z,24.26
2023-03-28T05:52:10.535Z,23.39
2023-03-28T05:55:16.691Z,23.05
2023-03-28T05:58:21.917Z,23.21
2023-03-28T06:01:29.870Z,24.12
2023-03-28T06:04:41.112Z,23.66
2023-03-28T06:07:49.839Z,24.31
2023-03-28T06:11:03.661Z,24.10
2023-03-28T06:14:22.843Z,24.30
2023-03-28T06:17:30.277Z,24.65
2023-03-28T06:20:39.971Z,24.48
2023-03-28T06:23:45.051Z,23.65
2023-03-28T06:27:05.912Z,24.62
2023-03-28T06:30:18.437Z,24.52
2023-03-28T06:33:27.457Z,24.33
2023-03-28T06:36:36.251Z,24.39
2023-03-28T06:39:43.126Z,24.37
2023-03-28T06:42:48.917Z,24.58
2023-03-28T06:46:07.975Z,24.16
2023-03-28T06:49:15.996Z,24.48
2023-03-28T06:52:38.468Z,24.92
2023-03-28T06:55:48.349Z,24.42
2023-03-28T06:58:55.719Z,24.23
2023-03-28T07:02:03.610Z,24.30
2023-03-28T07:05:10.220Z,24.63
2023-03-28T07:08:15.267Z,24.43
2023-03-28T07:11:19.406Z,25.33
2023-03-28T07:14:27.244Z,25.23
2023-03-28T07:17:31.646Z,25.16
2023-03-28T07:20:38.751Z,25.34
2023-03-28T07:23:43.140Z,24.48
2023-03-28T07:26:49.291Z,25.17
2023-03-28T07:29:53.148Z,25.02
2023-03-28T07:33:09.359Z,25.00
2023-03-28T07:36:22.946Z,25.85
2023-03-28T07:39:31.684Z,25.72
2023-03-28T07:42:41.631Z,25.49
2023-03-28T07:45:48.569Z,25.31
2023-03-28T07:48:52.928Z,25.13
2023-03-28T07:51:57.353Z,25.19
2023-03-28T07:55:01.882Z,25.03
2023-03-28T07:58:11.732Z,24.62
2023-03-28T08:01:19.454Z,25.02
2023-03-28T08:04:27.989Z,24.92
2023-03-28T08:07:42.836Z,25.25
2023-03-28T08:10:52.922Z,25.25
2023-03-28T08:13:57.365Z,25.14
2023-03-28T08:17:01.912Z,25.70
2023-03-28T08:20:11.882Z,25.71
2023-03-28T08:23:42.077Z,25.83
2023-03-28T08:27:07.031Z,25.85
2023-03-28T08:30:12.037Z,24.98
2023-03-28T08:33:25.426Z,25.33
2023-03-28T08:36:30.040Z,25.08
2023-03-28T08:39:35.469Z,25.54
2023-03-28T08:43:00.307Z,25.41
2023-03-28T08:46:05.182Z,25.89
2023-03-28T08:49:16.127Z,25.50
2023-03-28T08:52:21.711Z,25.66
2023-03-28T08:55:42.100Z,25.33
2023-03-28T08:59:29.438Z,26.05
2023-03-28T09:02:34.048Z,25.74
2023-03-28T09:05:57.257Z,26.21
2023-03-28T09:09:15.362Z,26.26
2023-03-28T09:12:27.596Z,26.68
2023-03-28T09:15:39.991Z,26.87
2023-03-28T09:19:16.879Z,27.01
2023-03-28T09:22:57.426Z,27.23
2023-03-28T09:26:20.957Z,27.92
2023-03-28T09:29:29.643Z,28.30
2023-03-28T09:32:40.843Z,27.89
2023-03-28T09:35:48.235Z,28.22
2023-03-28T09:38:58.165Z,27.94
2023-03-28T09:42:24.413Z,28.91
2023-03-28T09:45:59.174Z,29.57
2023-03-28T09:49:06.578Z,29.97
2023-03-28T09:52:18.725Z,30.58
2023-03-28T09:55:27.354Z,30.94
2023-03-28T09:58:47.945Z,30.89
2023-03-28T10:02:33.215Z,31.78
2023-03-28T10:05:44.191Z,31.47
2023-03-28T10:09:30.197Z,33.59
2023-03-28T10:12:40.599Z,32.77
2023-03-28T10:15:55.036Z,33.30
2023-03-28T10:19:36.722Z,32.92
2023-03-28T10:22:55.605Z,33.49
2023-03-28T10:26:04.945Z,34.04
2023-03-28T10:29:11.931Z,33.99
2023-03-28T10:32:29.283Z,35.60
2023-03-28T10:36:26.603Z,37.58
2023-03-28T10:39:36.306Z,36.04
2023-03-28T10:43:19.044Z,36.06
2023-03-28T10:47:28.697Z,36.64
2023-03-28T10:50:42.874Z,36.94
2023-03-28T10:53:57.797Z,37.15
2023-03-28T10:57:22.170Z,38.29
2023-03-28T11:00:43.981Z,38.49
2023-03-28T11:04:04.636Z,40.39
2023-03-28T11:07:34.981Z,40.81
2023-03-28T11:11:37.509Z,42.79
2023-03-28T11:15:03.498Z,42.55
2023-03-28T11:18:32.930Z,40.71
2023-03-28T11:21:50.484Z,44.63
2023-03-28T11:25:14.495Z,44.02
2023-03-28T11:29:06.936Z,43.17
2023-03-28T11:32:28.461Z,43.35
2023-03-28T11:36:08.479Z,44.01
2023-03-28T11:39:28.291Z,43.99
2023-03-28T11:42:42.187Z,43.92
2023-03-28T11:45:58.393Z,44.31
2023-03-28T11:49:20.823Z,44.29
2023-03-28T11:52:36.622Z,44.59
2023-03-28T11:55:52.253Z,44.74
2023-03-28T11:59:38.786Z,46.66
2023-03-28T12:02:54.367Z,46.35
2023-03-28T12:06:23.899Z,46.45
2023-03-28T12:10:01.113Z,46.71
2023-03-28T12:13:13.753Z,47.27
2023-03-28T12:16:42.167Z,46.88
2023-03-28T12:19:54.680Z,46.42
2023-03-28T12:23:10.124Z,46.35
2023-03-28T12:27:26.574Z,47.97
2023-03-28T12:31:08.433Z,49.24
2023-03-28T12:34:30.749Z,49.36
2023-03-28T12:38:35.455Z,47.05
2023-03-28T12:42:09.432Z,49.04
2023-03-28T12:45:48.645Z,53.03
2023-03-28T12:49:05.373Z,50.92
2023-03-28T12:52:19.067Z,49.95
2023-03-28T12:55:27.359Z,49.38
2023-03-28T12:58:38.920Z,49.95
2023-03-28T13:01:49.592Z,51.40
2023-03-28T13:05:00.227Z,52.17
2023-03-28T13:08:47.330Z,53.34
2023-03-28T13:12:04.177Z,53.27
2023-03-28T13:15:14.655Z,53.17
2023-03-28T13:18:20.947Z,52.36
2023-03-28T13:21:52.710Z,53.41
2023-03-28T13:25:28.273Z,53.84
2023-03-28T13:28:37.045Z,53.46
2023-03-28T13:31:44.993Z,52.69
2023-03-28T13:34:58.558Z,51.96
2023-03-28T13:38:37.414Z,54.93
2023-03-28T13:41:48.002Z,52.97
2023-03-28T13:44:55.155Z,52.18
2023-03-28T13:48:12.125Z,53.40
2023-03-28T13:51:27.527Z,52.78
2023-03-28T13:54:33.093Z,52.13
2023-03-28T13:57:38.044Z,53.85
2023-03-28T14:00:42.337Z,54.13
2023-03-28T14:03:49.941Z,55.01
2023-03-28T14:06:56.030Z,56.16
2023-03-28T14:10:00.637Z,54.97
2023-03-28T14:13:19.875Z,55.81
2023-03-28T14:16:24.324Z,53.31
2023-03-28T14:19:40.498Z,55.96
2023-03-28T14:22:59.094Z,58.38
2023-03-28T14:26:14.566Z,54.56
2023-03-28T14:29:20.417Z,54.89
2023-03-28T14:32:31.174Z,59.15
2023-03-28T14:35:36.631Z,55.02
2023-03-28T14:38:41.196Z,55.96
2023-03-28T14:41:45.709Z,54.55
2023-03-28T14:44:54.603Z,55.36
2023-03-28T14:47:59.898Z,56.34
2023-03-28T14:51:06.594Z,56.02
2023-03-28T14:54:16.250Z,56.47
2023-03-28T14:57:20.975Z,57.67
2023-03-28T15:00:38.480Z,59.13
2023-03-28T15:03:47.335Z,59.11
2023-03-28T15:06:57.145Z,57.61
2023-03-28T15:10:07.815Z,57.82
2023-03-28T15:13:32.722Z,57.30
2023-03-28T15:16:44.054Z,57.85
2023-03-28T15:19:53.751Z,56.86
2023-03-28T15:23:01.097Z,57.35
2023-03-28T15:26:23.233Z,58.51
2023-03-28T15:29:29.600Z,59.04
2023-03-28T15:32:35.143Z,57.41
2023-03-28T15:35:41.354Z,57.52
2023-03-28T15:38:49.989Z,59.04
2023-03-28T15:42:00.149Z,58.30
2023-03-28T15:45:12.835Z,58.74
2023-03-28T15:48:20.901Z,58.09
2023-03-28T15:51:25.554Z,59.55
2023-03-28T15:54:32.040Z,59.36
2023-03-28T15:57:37.181Z,59.05
2023-03-28T16:00:44.873Z,60.13
2023-03-28T16:03:50.481Z,60.08
2023-03-28T16:07:12.050Z,60.91
2023-03-28T16:10:25.916Z,60.01
2023-03-28T16:13:49.041Z,58.47
2023-03-28T16:17:19.528Z,57.94
2023-03-28T16:20:34.455Z,56.76
2023-03-28T16:23:41.660Z,56.12
2023-03-28T16:26:46.348Z,53.44
2023-03-28T16:29:51.300Z,52.07
2023-03-28T16:32:55.613Z,50.65
2023-03-28T16:36:00.769Z,50.92
2023-03-28T16:39:07.158Z,50.88
2023-03-28T16:42:11.870Z,50.22
2023-03-28T16:45:16.834Z,50.19
2023-03-28T16:48:21.665Z,49.62
2023-03-28T16:51:26.296Z,48.49
2023-03-28T16:54:30.581Z,48.51
2023-03-28T16:57:35.162Z,48.28
2023-03-28T17:00:39.523Z,48.28
2023-03-28T17:03:44.123Z,48.39
2023-03-28T17:06:48.050Z,48.15
2023-03-28T17:09:53.244Z,48.26
2023-03-28T17:12:57.623Z,47.87
2023-03-28T17:16:02.037Z,48.42
2023-03-28T17:19:06.385Z,48.73
2023-03-28T17:22:10.754Z,48.23
2023-03-28T17:25:16.230Z,48.90
2023-03-28T17:28:20.881Z,48.66
2023-03-28T17:31:25.925Z,48.67
2023-03-28T17:34:33.511Z,49.28
2023-03-28T17:37:39.427Z,49.33
2023-03-28T17:40:52.745Z,48.39
2023-03-28T17:43:58.580Z,48.74
2023-03-28T17:47:02.710Z,49.83
2023-03-28T17:50:08.403Z,49.61
2023-03-28T17:53:12.680Z,50.18
2023-03-28T17:56:17.774Z,50.44
2023-03-28T17:59:23.187Z,50.20
2023-03-28T18:02:27.878Z,50.50
2023-03-28T18:05:52.860Z,51.07
2023-03-28T18:08:57.821Z,51.16
2023-03-28T18:12:02.185Z,51.59
2023-03-28T18:15:07.201Z,51.33
2023-03-28T18:18:13.927Z,51.54
2023-03-28T18:21:18.599Z,52.04
2023-03-28T18:24:23.202Z,52.32
2023-03-28T18:27:27.573Z,52.61
2023-03-28T18:30:32.483Z,52.42
2023-03-28T18:33:37.368Z,53.55
2023-03-28T18:36:42.923Z,54.58
2023-03-28T18:39:47.560Z,53.77
2023-03-28T18:42:52.114Z,53.36
2023-03-28T18:45:57.009Z,53.53
2023-03-28T18:49:02.696Z,53.25
2023-03-28T18:52:06.998Z,54.02
2023-03-28T18:55:12.950Z,54.71
2023-03-28T18:58:17.027Z,54.27
2023-03-28T19:01:21.747Z,55.33
2023-03-28T19:04:27.186Z,55.25
2023-03-28T19:07:31.943Z,55.15
2023-03-28T19:10:36.469Z,55.85
2023-03-28T19:13:42.337Z,55.04
2023-03-28T19:16:46.339Z,57.37
2023-03-28T19:19:50.826Z,56.20
2023-03-28T19:22:55.074Z,56.25
2023-03-28T19:26:01.950Z,56.11
2023-03-28T19:29:06.814Z,56.68
2023-03-28T19:32:11.071Z,56.73
2023-03-28T19:35:23.564Z,58.07
2023-03-28T19:38:28.900Z,58.38
2023-03-28T19:41:33.482Z,57.81
2023-03-28T19:44:38.122Z,56.78
2023-03-28T19:47:42.779Z,57.85
2023-03-28T19:50:50.972Z,57.31
2023-03-28T19:53:57.734Z,57.20
2023-03-28T19:57:02.196Z,58.11
2023-03-28T20:00:08.772Z,59.16
2023-03-28T20:03:19.949Z,57.88
2023-03-28T20:06:24.524Z,59.17
2023-03-28T20:09:28.766Z,59.86
2023-03-28T20:12:33.411Z,59.50
2023-03-28T20:15:42.831Z,59.34
2023-03-28T20:18:47.529Z,60.21
2023-03-28T20:21:51.936Z,59.97
2023-03-28T20:24:57.071Z,60.68
2023-03-28T20:28:03.660Z,59.97
2023-03-28T20:31:10.188Z,60.49
2023-03-28T20:34:14.817Z,60.50
2023-03-28T20:37:20.996Z,60.94
2023-03-28T20:40:25.976Z,62.92
2023-03-28T20:43:31.611Z,60.70
2023-03-28T20:46:39.731Z,61.42
2023-03-28T20:49:47.285Z,60.71
2023-03-28T20:52:52.606Z,60.87
2023-03-28T20:56:06.130Z,60.71
2023-03-28T20:59:10.466Z,59.86
2023-03-28T21:02:15.670Z,61.53
2023-03-28T21:05:20.353Z,60.82
2023-03-28T21:08:28.649Z,60.18
2023-03-28T21:11:35.535Z,60.73
2023-03-28T21:14:40.320Z,60.82
2023-03-28T21:17:44.797Z,60.89
2023-03-28T21:20:49.119Z,60.90
2023-03-28T21:23:54.016Z,59.45
2023-03-28T21:26:58.585Z,59.74
2023-03-28T21:30:07.843Z,60.27
2023-03-28T21:33:16.933Z,60.43
2023-03-28T21:36:22.265Z,61.48
2023-03-28T21:39:26.793Z,59.83
2023-03-28T21:42:31.707Z,60.09
2023-03-28T21:45:36.612Z,57.74
2023-03-28T21:48:42.539Z,57.18
2023-03-28T21:51:47.438Z,58.77
2023-03-28T21:54:51.690Z,56.23
2023-03-28T21:57:55.931Z,55.27
2023-03-28T22:01:02.261Z,52.26
2023-03-28T22:04:06.437Z,50.35
2023-03-28T22:07:11.673Z,47.72
2023-03-28T22:10:16.201Z,46.47
2023-03-28T22:13:22.145Z,44.46
2023-03-28T22:16:26.845Z,44.19
2023-03-28T22:19:31.764Z,43.02
2023-03-28T22:22:36.612Z,41.63
2023-03-28T22:25:41.303Z,40.19
2023-03-28T22:28:46.785Z,39.56
2023-03-28T22:31:51.290Z,39.97
2023-03-28T22:34:55.180Z,40.26
2023-03-28T22:37:59.760Z,40.34
2023-03-28T22:41:04.357Z,41.97
2023-03-28T22:44:08.506Z,41.11
2023-03-28T22:47:12.927Z,40.81
2023-03-28T22:50:19.332Z,39.67
2023-03-28T22:53:30.338Z,40.93
2023-03-28T22:56:34.760Z,40.11
2023-03-28T22:59:38.882Z,40.35
2023-03-28T23:02:43.349Z,40.20
2023-03-28T23:05:47.826Z,39.06
2023-03-28T23:08:52.134Z,38.49
2023-03-28T23:11:56.589Z,38.24
2023-03-28T23:15:00.571Z,37.55
2023-03-28T23:18:06.715Z,37.55
2023-03-28T23:21:11.317Z,37.52
2023-03-28T23:24:15.936Z,37.50
2023-03-28T23:27:21.064Z,36.91
2023-03-28T23:30:25.517Z,37.78
2023-03-28T23:33:30.097Z,37.32
2023-03-28T23:36:34.375Z,36.71
2023-03-28T23:39:39.084Z,37.28
2023-03-28T23:42:45.080Z,36.91
2023-03-28T23:45:49.920Z,37.22
2023-03-28T23:48:54.240Z,37.04
2023-03-28T23:51:58.298Z,36.89
2023-03-28T23:55:03.120Z,36.79
2023-03-28T23:58:07.581Z,37.04
